Connexion S'enregistrer

Connexion à votre compte

Identifiant
Mot de passe
Maintenir la connexion active sur ce site

Créer un compte

Pour valider ce formulaire, vous devez remplir tous les champs.
Nom
Identifiant
Mot de passe
Répétez le mot de passe
Adresse e-mail
Répétez l'adresse e-mail

Nous contacter

 Téléphone : +33 (0)4 79 54 41 81

Coordonnées détaillées et accès : cliquez ici

 
LFLB °C
    Ferienhaus Ostsee
[source: ADDS]
METAR
LFLB 170500Z AUTO 20002KT CAVOK 13/13 Q1018 NOSIG =
TAF LFLB 162300Z 1700/1724 33008KT CAVOK PROB30 TEMPO 1703/1706 BKN020
TAF
TAF LFLB 162300Z 1700/1724 33008KT CAVOK PROB30 TEMPO 1703/1706 BKN020 =
SR / SS: 03:46 / 19:28 UTC (Lever/Coucher du soleil le 2019-06-17)
JSN Boot template designed by JoomlaShine.com